createdAt,value
2023-03-21T00:01:02.595Z,8.53
2023-03-21T00:03:31.963Z,9.47
2023-03-21T00:05:59.588Z,7.63
2023-03-21T00:08:27.554Z,9.10
2023-03-21T00:11:08.198Z,10.27
2023-03-21T00:13:38.654Z,12.40
2023-03-21T00:16:14.807Z,11.00
2023-03-21T00:18:52.810Z,10.37
2023-03-21T00:24:16.102Z,13.97
2023-03-21T00:26:45.117Z,9.70
2023-03-21T00:29:12.771Z,9.23
2023-03-21T00:31:40.542Z,9.37
2023-03-21T00:34:08.242Z,8.93
2023-03-21T00:36:35.987Z,12.27
2023-03-21T00:39:22.437Z,8.70
2023-03-21T00:41:50.523Z,10.47
2023-03-21T00:44:18.250Z,13.73
2023-03-21T00:47:00.589Z,13.73
2023-03-21T00:49:34.440Z,9.70
2023-03-21T00:52:15.144Z,10.80
2023-03-21T00:54:47.101Z,11.27
2023-03-21T00:57:14.832Z,8.70
2023-03-21T00:59:42.380Z,9.53
2023-03-21T01:02:15.263Z,12.20
2023-03-21T01:04:43.363Z,9.17
2023-03-21T01:07:10.824Z,12.37
2023-03-21T01:09:40.426Z,10.97
2023-03-21T01:12:08.060Z,11.30
2023-03-21T01:14:35.775Z,11.50
2023-03-21T01:17:03.818Z,11.83
2023-03-21T01:19:48.289Z,11.53
2023-03-21T01:22:18.732Z,8.07
2023-03-21T01:24:54.234Z,12.97
2023-03-21T01:27:26.359Z,10.63
2023-03-21T01:29:54.003Z,9.83
2023-03-21T01:32:22.049Z,9.77
2023-03-21T01:34:49.655Z,9.97
2023-03-21T01:37:21.001Z,11.83
2023-03-21T01:39:48.805Z,11.23
2023-03-21T01:42:16.361Z,11.77
2023-03-21T01:45:08.039Z,10.33
2023-03-21T01:47:35.749Z,9.37
2023-03-21T01:50:05.168Z,10.20
2023-03-21T01:52:39.214Z,12.57
2023-03-21T01:55:12.968Z,11.13
2023-03-21T01:58:04.246Z,8.90
2023-03-21T02:00:34.410Z,12.10
2023-03-21T02:03:20.953Z,11.83
2023-03-21T02:06:08.036Z,10.60
2023-03-21T02:08:39.594Z,8.03
2023-03-21T02:11:12.531Z,13.47
2023-03-21T02:13:41.204Z,10.87
2023-03-21T02:16:49.678Z,10.63
2023-03-21T02:19:53.387Z,12.30
2023-03-21T02:23:05.133Z,12.20
2023-03-21T02:26:23.439Z,10.87
2023-03-21T02:29:17.861Z,11.90
2023-03-21T02:32:38.278Z,10.87
2023-03-21T02:35:54.363Z,9.90
2023-03-21T02:38:57.085Z,9.03
2023-03-21T02:41:46.242Z,9.80
2023-03-21T02:44:32.006Z,13.70
2023-03-21T02:47:15.113Z,11.37
2023-03-21T02:50:03.601Z,9.43
2023-03-21T02:52:39.592Z,10.00
2023-03-21T02:55:15.786Z,11.80
2023-03-21T02:57:46.699Z,9.83
2023-03-21T03:00:21.472Z,9.67
2023-03-21T03:03:02.726Z,11.20
2023-03-21T03:05:48.366Z,11.57
2023-03-21T03:08:50.067Z,9.80
2023-03-21T03:11:41.113Z,8.40
2023-03-21T03:14:46.824Z,11.53
2023-03-21T03:17:38.730Z,12.20
2023-03-21T03:20:56.611Z,10.87
2023-03-21T03:23:53.513Z,13.10
2023-03-21T03:26:41.170Z,9.73
2023-03-21T03:29:16.992Z,10.37
2023-03-21T03:32:06.600Z,12.67
2023-03-21T03:34:42.809Z,10.20
2023-03-21T03:37:24.610Z,10.07
2023-03-21T03:40:15.109Z,11.03
2023-03-21T03:43:07.538Z,11.33
2023-03-21T03:50:35.867Z,9.87
2023-03-21T03:53:50.609Z,12.23
2023-03-21T03:56:33.650Z,10.13
2023-03-21T03:59:29.046Z,9.80
2023-03-21T04:02:17.639Z,12.63
2023-03-21T04:05:38.539Z,11.93
2023-03-21T04:08:14.503Z,12.80
2023-03-21T04:10:56.630Z,12.20
2023-03-21T04:13:49.240Z,11.87
2023-03-21T04:16:39.441Z,10.93
2023-03-21T04:25:03.136Z,12.43
2023-03-21T04:27:37.441Z,11.27
2023-03-21T04:33:27.104Z,11.37
2023-03-21T04:39:18.105Z,8.33
2023-03-21T04:42:15.866Z,8.70
2023-03-21T04:47:58.592Z,10.67
2023-03-21T04:53:14.923Z,9.47
2023-03-21T04:57:01.159Z,8.70
2023-03-21T04:59:52.371Z,9.63
2023-03-21T05:02:44.123Z,7.57
2023-03-21T05:24:03.837Z,9.60
2023-03-21T05:30:50.217Z,10.10
2023-03-21T05:33:47.065Z,9.67
2023-03-21T05:40:31.568Z,9.73
2023-03-21T05:43:11.223Z,11.33
2023-03-21T05:46:08.536Z,8.77
2023-03-21T05:56:10.831Z,10.53
2023-03-21T05:59:26.137Z,7.30
2023-03-21T06:04:48.745Z,9.80
2023-03-21T06:10:21.520Z,12.30
2023-03-21T06:19:42.751Z,8.60
2023-03-21T06:22:12.253Z,8.83
2023-03-21T06:24:50.282Z,11.70
2023-03-21T06:27:27.231Z,8.23
2023-03-21T06:38:02.548Z,9.63
2023-03-21T06:41:24.799Z,9.63
2023-03-21T06:54:23.250Z,8.77
2023-03-21T07:04:15.128Z,5.83
2023-03-21T07:18:40.800Z,10.03
2023-03-21T07:21:18.165Z,10.07
2023-03-21T07:25:05.573Z,7.93
2023-03-21T07:27:54.175Z,7.23
2023-03-21T07:31:57.940Z,7.07
2023-03-21T07:43:13.003Z,7.30
2023-03-21T07:46:22.695Z,8.87
2023-03-21T07:49:13.613Z,7.83
2023-03-21T07:52:13.278Z,8.13
2023-03-21T07:55:11.870Z,5.90
2023-03-21T07:57:46.714Z,8.27
2023-03-21T08:01:24.943Z,7.60
2023-03-21T08:04:08.042Z,10.73
2023-03-21T08:06:53.007Z,8.80
2023-03-21T08:12:10.812Z,9.87
2023-03-21T08:18:17.940Z,8.37
2023-03-21T08:21:22.874Z,7.80
2023-03-21T08:23:50.353Z,9.03
2023-03-21T08:26:31.782Z,9.13
2023-03-21T08:28:59.609Z,6.97
2023-03-21T08:32:06.472Z,8.90
2023-03-21T08:37:14.984Z,9.03
2023-03-21T08:42:24.049Z,5.23
2023-03-21T08:45:15.904Z,6.87
2023-03-21T08:47:44.012Z,6.90
2023-03-21T08:50:41.535Z,7.63
2023-03-21T08:59:49.872Z,7.67
2023-03-21T09:02:25.473Z,7.53
2023-03-21T09:12:18.875Z,7.73
2023-03-21T09:14:59.650Z,9.00
2023-03-21T09:19:13.048Z,5.83
2023-03-21T09:22:12.800Z,8.07
2023-03-21T09:28:21.153Z,7.13
2023-03-21T09:31:58.623Z,5.97
2023-03-21T09:34:50.553Z,7.67
2023-03-21T09:37:18.231Z,5.87
2023-03-21T09:40:32.171Z,7.80
2023-03-21T09:54:45.523Z,6.03
2023-03-21T09:57:59.723Z,8.60
2023-03-21T10:08:03.686Z,6.10
2023-03-21T10:11:43.573Z,5.77
2023-03-21T10:19:01.933Z,5.27
2023-03-21T10:22:02.777Z,5.17
2023-03-21T10:25:01.177Z,5.50
2023-03-21T10:28:14.656Z,8.77
2023-03-21T10:31:07.199Z,6.07
2023-03-21T10:34:20.889Z,6.57
2023-03-21T10:37:13.043Z,7.90
2023-03-21T10:40:10.114Z,6.47
2023-03-21T10:43:03.214Z,5.57
2023-03-21T10:45:52.665Z,5.07
2023-03-21T10:48:30.550Z,5.90
2023-03-21T10:51:10.583Z,5.63
2023-03-21T10:54:01.936Z,5.53
2023-03-21T10:57:31.588Z,5.57
2023-03-21T11:00:46.986Z,5.93
2023-03-21T11:03:37.888Z,5.07
2023-03-21T11:10:14.635Z,8.17
2023-03-21T11:13:08.013Z,5.70
2023-03-21T11:22:12.802Z,6.57
2023-03-21T11:28:07.728Z,7.23
2023-03-21T11:34:38.381Z,6.50
2023-03-21T11:38:03.710Z,4.60
2023-03-21T11:40:56.172Z,5.47
2023-03-21T11:43:52.510Z,7.73
2023-03-21T11:47:02.064Z,7.13
2023-03-21T11:49:43.366Z,5.47
2023-03-21T11:53:07.764Z,6.30
2023-03-21T11:56:18.521Z,5.53
2023-03-21T11:59:27.939Z,4.63
2023-03-21T12:02:38.127Z,6.20
2023-03-21T12:05:34.432Z,6.90
2023-03-21T12:08:57.655Z,8.27
2023-03-21T12:11:49.868Z,5.30
2023-03-21T12:14:30.230Z,5.37
2023-03-21T12:17:53.397Z,8.60
2023-03-21T12:21:01.373Z,4.17
2023-03-21T12:24:21.523Z,4.23
2023-03-21T12:26:59.302Z,4.87
2023-03-21T12:30:11.693Z,4.17
2023-03-21T12:33:28.195Z,4.27
2023-03-21T12:36:30.086Z,3.47
2023-03-21T12:39:37.303Z,4.93
2023-03-21T12:42:11.693Z,4.33
2023-03-21T12:45:03.988Z,4.33
2023-03-21T12:48:00.913Z,3.87
2023-03-21T12:50:47.091Z,3.90
2023-03-21T12:53:49.769Z,3.20
2023-03-21T13:01:18.629Z,3.90
2023-03-21T13:05:06.082Z,3.23
2023-03-21T13:07:43.782Z,3.40
2023-03-21T13:10:28.340Z,4.33
2023-03-21T13:14:00.948Z,4.17
2023-03-21T13:16:43.515Z,4.73
2023-03-21T13:19:53.043Z,4.93
2023-03-21T13:22:35.360Z,3.20
2023-03-21T13:25:36.478Z,3.47
2023-03-21T13:28:23.839Z,3.57
2023-03-21T13:31:29.380Z,4.10
2023-03-21T13:34:01.041Z,3.70
2023-03-21T13:36:46.020Z,4.60
2023-03-21T13:39:35.442Z,5.40
2023-03-21T13:42:33.860Z,5.03
2023-03-21T13:45:58.111Z,5.37
2023-03-21T13:48:57.998Z,3.03
2023-03-21T13:52:17.180Z,4.43
2023-03-21T13:54:58.885Z,5.40
2023-03-21T13:57:37.327Z,4.03
2023-03-21T14:00:36.029Z,4.67
2023-03-21T14:03:25.449Z,3.57
2023-03-21T14:06:00.838Z,3.10
2023-03-21T14:08:37.473Z,5.87
2023-03-21T14:11:18.985Z,4.43
2023-03-21T14:13:51.684Z,5.33
2023-03-21T14:16:30.577Z,4.87
2023-03-21T14:19:06.143Z,5.27
2023-03-21T14:21:52.364Z,4.60
2023-03-21T14:24:26.974Z,3.30
2023-03-21T14:26:58.057Z,4.10
2023-03-21T14:30:02.385Z,5.07
2023-03-21T14:32:35.610Z,4.10
2023-03-21T14:35:28.090Z,2.90
2023-03-21T14:38:22.150Z,3.30
2023-03-21T14:41:06.925Z,3.93
2023-03-21T14:43:53.428Z,3.40
2023-03-21T14:50:22.677Z,4.33
2023-03-21T14:53:01.225Z,3.37
2023-03-21T14:55:49.473Z,2.87
2023-03-21T14:58:30.490Z,3.83
2023-03-21T15:01:47.267Z,4.03
2023-03-21T15:04:23.581Z,4.00
2023-03-21T15:07:24.699Z,5.47
2023-03-21T15:10:35.909Z,4.00
2023-03-21T15:13:35.652Z,5.90
2023-03-21T15:16:31.173Z,4.83
2023-03-21T15:22:30.646Z,3.07
2023-03-21T15:26:15.289Z,3.50
2023-03-21T15:28:52.574Z,3.73
2023-03-21T15:31:50.560Z,6.87
2023-03-21T15:34:43.757Z,4.13
2023-03-21T15:37:32.525Z,4.87
2023-03-21T15:40:24.299Z,4.87
2023-03-21T15:43:15.408Z,4.70
2023-03-21T15:46:09.762Z,5.87
2023-03-21T15:48:47.229Z,5.77
2023-03-21T15:51:39.206Z,3.70
2023-03-21T15:54:43.668Z,5.57
2023-03-21T15:57:51.293Z,4.30
2023-03-21T16:00:57.221Z,5.90
2023-03-21T16:03:35.468Z,4.97
2023-03-21T16:06:49.106Z,4.43
2023-03-21T16:09:24.769Z,5.07
2023-03-21T16:12:06.637Z,5.03
2023-03-21T16:14:40.264Z,6.00
2023-03-21T16:18:04.990Z,5.83
2023-03-21T16:20:57.247Z,5.10
2023-03-21T16:23:30.945Z,3.53
2023-03-21T16:26:05.293Z,6.20
2023-03-21T16:28:32.830Z,5.13
2023-03-21T16:31:01.513Z,3.60
2023-03-21T16:33:41.459Z,3.33
2023-03-21T16:37:04.399Z,4.10
2023-03-21T16:39:56.923Z,4.77
2023-03-21T16:42:53.398Z,5.33
2023-03-21T16:48:20.290Z,4.33
2023-03-21T16:50:52.100Z,3.80
2023-03-21T16:53:19.678Z,4.43
2023-03-21T16:55:55.918Z,5.90
2023-03-21T16:58:30.139Z,3.90
2023-03-21T17:01:03.420Z,7.33
2023-03-21T17:03:55.670Z,4.33
2023-03-21T17:06:47.521Z,4.63
2023-03-21T17:09:49.322Z,3.87
2023-03-21T17:12:41.424Z,5.00
2023-03-21T17:15:15.965Z,3.83
2023-03-21T17:17:51.922Z,4.00
2023-03-21T17:20:38.496Z,4.60
2023-03-21T17:23:18.646Z,5.67
2023-03-21T17:25:49.224Z,6.90
2023-03-21T17:28:20.077Z,5.23
2023-03-21T17:30:55.582Z,6.17
2023-03-21T17:33:24.994Z,5.10
2023-03-21T17:35:57.437Z,6.10
2023-03-21T17:38:38.330Z,5.60
2023-03-21T17:41:06.170Z,7.47
2023-03-21T17:47:44.968Z,3.97
2023-03-21T17:50:32.776Z,6.50
2023-03-21T17:53:05.544Z,3.97
2023-03-21T17:55:57.797Z,4.80
2023-03-21T17:58:47.681Z,4.47
2023-03-21T18:01:26.135Z,4.87
2023-03-21T18:04:24.858Z,3.97
2023-03-21T18:07:40.195Z,5.50
2023-03-21T18:10:36.105Z,6.63
2023-03-21T18:13:27.963Z,6.80
2023-03-21T18:16:12.945Z,4.83
2023-03-21T18:18:47.532Z,6.87
2023-03-21T18:21:32.235Z,4.83
2023-03-21T18:24:27.316Z,5.17
2023-03-21T18:27:17.824Z,5.07
2023-03-21T18:30:25.911Z,6.60
2023-03-21T18:33:48.015Z,4.97
2023-03-21T18:36:35.652Z,4.47
2023-03-21T18:39:11.176Z,4.77
2023-03-21T18:42:29.855Z,5.33
2023-03-21T18:45:05.916Z,5.03
2023-03-21T18:47:48.408Z,6.13
2023-03-21T18:50:26.761Z,5.40
2023-03-21T18:53:05.444Z,5.13
2023-03-21T18:55:46.516Z,6.83
2023-03-21T18:58:23.190Z,4.90
2023-03-21T19:01:25.728Z,6.50
2023-03-21T19:04:25.604Z,6.67
2023-03-21T19:07:11.667Z,5.27
2023-03-21T19:12:45.256Z,5.40
2023-03-21T19:15:13.218Z,8.27
2023-03-21T19:21:11.188Z,5.73
2023-03-21T19:27:00.571Z,7.47
2023-03-21T19:32:19.332Z,6.43
2023-03-21T19:34:47.285Z,5.13
2023-03-21T19:37:19.441Z,6.67
2023-03-21T19:39:56.104Z,6.00
2023-03-21T19:42:28.489Z,5.13
2023-03-21T19:45:08.055Z,4.67
2023-03-21T19:47:48.931Z,4.90
2023-03-21T19:50:55.384Z,5.90
2023-03-21T19:53:11.701Z,6.20
2023-03-21T19:55:54.303Z,6.13
2023-03-21T19:58:40.583Z,6.20
2023-03-21T20:01:32.123Z,6.30
2023-03-21T20:04:11.446Z,5.73
2023-03-21T20:06:58.080Z,5.83
2023-03-21T20:09:50.589Z,5.40
2023-03-21T20:12:24.751Z,6.43
2023-03-21T20:15:15.759Z,7.30
2023-03-21T20:17:58.086Z,6.50
2023-03-21T20:20:39.380Z,6.23
2023-03-21T20:23:24.702Z,5.87
2023-03-21T20:26:10.436Z,8.10
2023-03-21T20:28:56.088Z,6.27
2023-03-21T20:31:36.056Z,7.07
2023-03-21T20:34:23.297Z,5.93
2023-03-21T20:36:51.508Z,5.83
2023-03-21T20:39:33.467Z,5.57
2023-03-21T20:42:13.613Z,5.97
2023-03-21T20:44:57.409Z,7.17
2023-03-21T20:47:26.861Z,6.33
2023-03-21T20:50:00.772Z,6.70
2023-03-21T20:55:27.600Z,7.67
2023-03-21T20:58:02.280Z,6.93
2023-03-21T21:00:33.823Z,7.43
2023-03-21T21:03:09.507Z,6.53
2023-03-21T21:05:51.182Z,6.87
2023-03-21T21:08:27.449Z,8.23
2023-03-21T21:12:05.065Z,8.47
2023-03-21T21:14:27.560Z,6.80
2023-03-21T21:17:23.139Z,6.50
2023-03-21T21:20:12.497Z,9.07
2023-03-21T21:23:00.449Z,6.57
2023-03-21T21:25:34.794Z,7.70
2023-03-21T21:28:13.763Z,9.37
2023-03-21T21:30:47.635Z,7.90
2023-03-21T21:33:19.939Z,7.60
2023-03-21T21:35:51.717Z,7.43
2023-03-21T21:38:30.720Z,7.37
2023-03-21T21:41:22.626Z,8.30
2023-03-21T21:43:59.869Z,8.43
2023-03-21T21:46:41.237Z,8.70
2023-03-21T21:49:15.076Z,10.60
2023-03-21T21:54:36.227Z,9.10
2023-03-21T21:57:04.523Z,7.73
2023-03-21T21:59:32.462Z,9.00
2023-03-21T22:02:07.894Z,10.90
2023-03-21T22:04:43.752Z,8.40
2023-03-21T22:07:20.255Z,8.63
2023-03-21T22:12:43.289Z,8.87
2023-03-21T22:15:28.498Z,7.73
2023-03-21T22:17:56.024Z,10.67
2023-03-21T22:20:59.611Z,7.60
2023-03-21T22:23:34.481Z,8.30
2023-03-21T22:26:09.607Z,9.17
2023-03-21T22:28:44.548Z,7.60
2023-03-21T22:31:18.528Z,8.07
2023-03-21T22:36:57.476Z,8.13
2023-03-21T22:39:26.629Z,7.13
2023-03-21T22:42:20.991Z,8.27
2023-03-21T22:44:57.652Z,7.87
2023-03-21T22:47:24.999Z,8.13
2023-03-21T22:49:58.565Z,7.93
2023-03-21T22:52:35.965Z,8.67
2023-03-21T22:55:21.257Z,8.60
2023-03-21T22:57:54.272Z,8.07
2023-03-21T23:00:21.733Z,7.87
2023-03-21T23:03:00.102Z,9.37
2023-03-21T23:05:40.318Z,8.33
2023-03-21T23:08:11.015Z,8.33
2023-03-21T23:10:53.355Z,7.47
2023-03-21T23:13:37.156Z,7.30
2023-03-21T23:16:07.530Z,8.97
2023-03-21T23:18:37.585Z,8.17
2023-03-21T23:21:17.639Z,8.87
2023-03-21T23:23:51.340Z,7.50
2023-03-21T23:26:38.429Z,7.20
2023-03-21T23:29:12.430Z,7.53
2023-03-21T23:31:46.420Z,7.80
2023-03-21T23:34:21.279Z,8.10
2023-03-21T23:36:54.114Z,9.03
2023-03-21T23:40:01.492Z,7.73
2023-03-21T23:42:38.391Z,8.30
2023-03-21T23:45:34.497Z,7.97
2023-03-21T23:48:01.946Z,8.70
2023-03-21T23:50:38.551Z,11.80
2023-03-21T23:53:08.705Z,9.33
2023-03-21T23:55:41.228Z,8.70
2023-03-21T23:58:11.534Z,8.20
